sensor_id;sensor_type;location;lat;lon;timestamp;pressure;altitude;pressure_sealevel;temperature;humidity
44351;BME280;62766;62.622;17.912;2022-09-28T00:02:08;100711.55;;;12.29;80.99
44351;BME280;62766;62.622;17.912;2022-09-28T00:04:42;100713.79;;;12.29;79.52
44351;BME280;62766;62.622;17.912;2022-09-28T00:07:10;100712.87;;;12.22;79.35
44351;BME280;62766;62.622;17.912;2022-09-28T00:09:39;100712.32;;;12.13;79.29
44351;BME280;62766;62.622;17.912;2022-09-28T00:12:07;100711.40;;;12.22;79.43
44351;BME280;62766;62.622;17.912;2022-09-28T00:14:35;100713.57;;;12.08;79.59
44351;BME280;62766;62.622;17.912;2022-09-28T00:17:03;100712.11;;;12.09;79.40
44351;BME280;62766;62.622;17.912;2022-09-28T00:19:32;100709.28;;;12.18;79.77
44351;BME280;62766;62.622;17.912;2022-09-28T00:22:01;100710.69;;;12.06;79.81
44351;BME280;62766;62.622;17.912;2022-09-28T00:24:31;100710.75;;;12.19;79.93
44351;BME280;62766;62.622;17.912;2022-09-28T00:27:00;100711.28;;;12.06;79.87
44351;BME280;62766;62.622;17.912;2022-09-28T00:29:31;100710.27;;;12.16;80.01
44351;BME280;62766;62.622;17.912;2022-09-28T00:32:05;100710.90;;;12.22;79.55
44351;BME280;62766;62.622;17.912;2022-09-28T00:34:37;100710.17;;;12.32;78.69
44351;BME280;62766;62.622;17.912;2022-09-28T00:37:07;100711.66;;;12.20;78.95
44351;BME280;62766;62.622;17.912;2022-09-28T00:39:37;100711.24;;;12.33;79.24
44351;BME280;62766;62.622;17.912;2022-09-28T00:42:12;100710.30;;;12.33;79.22
44351;BME280;62766;62.622;17.912;2022-09-28T00:44:47;100711.08;;;12.27;79.39
44351;BME280;62766;62.622;17.912;2022-09-28T00:47:20;100712.61;;;12.38;79.16
44351;BME280;62766;62.622;17.912;2022-09-28T00:49:55;100710.05;;;12.36;79.05
44351;BME280;62766;62.622;17.912;2022-09-28T00:52:29;100710.25;;;12.37;78.99
44351;BME280;62766;62.622;17.912;2022-09-28T00:55:01;100711.52;;;12.44;78.67
44351;BME280;62766;62.622;17.912;2022-09-28T00:57:32;100711.47;;;12.38;78.62
44351;BME280;62766;62.622;17.912;2022-09-28T01:00:03;100711.33;;;12.50;78.68
44351;BME280;62766;62.622;17.912;2022-09-28T01:02:33;100711.45;;;12.50;78.59
44351;BME280;62766;62.622;17.912;2022-09-28T01:05:04;100708.06;;;12.52;78.36
44351;BME280;62766;62.622;17.912;2022-09-28T01:07:34;100707.48;;;12.48;78.12
44351;BME280;62766;62.622;17.912;2022-09-28T01:10:04;100708.02;;;12.45;77.93
44351;BME280;62766;62.622;17.912;2022-09-28T01:12:33;100709.21;;;12.39;78.06
44351;BME280;62766;62.622;17.912;2022-09-28T01:15:04;100710.64;;;12.43;78.15
44351;BME280;62766;62.622;17.912;2022-09-28T01:17:42;100711.68;;;12.29;78.06
44351;BME280;62766;62.622;17.912;2022-09-28T01:20:26;100712.40;;;12.44;78.10
44351;BME280;62766;62.622;17.912;2022-09-28T01:23:21;100713.09;;;12.38;78.20
44351;BME280;62766;62.622;17.912;2022-09-28T01:25:54;100716.86;;;12.74;77.71
44351;BME280;62766;62.622;17.912;2022-09-28T01:28:26;100717.12;;;12.58;78.21
44351;BME280;62766;62.622;17.912;2022-09-28T01:31:02;100717.33;;;12.35;77.97
44351;BME280;62766;62.622;17.912;2022-09-28T01:33:37;100718.02;;;12.39;77.96
44351;BME280;62766;62.622;17.912;2022-09-28T01:36:11;100719.49;;;12.33;77.65
44351;BME280;62766;62.622;17.912;2022-09-28T01:38:43;100718.32;;;12.32;77.83
44351;BME280;62766;62.622;17.912;2022-09-28T01:41:14;100718.58;;;12.49;78.02
44351;BME280;62766;62.622;17.912;2022-09-28T01:43:46;100718.75;;;12.43;78.08
44351;BME280;62766;62.622;17.912;2022-09-28T01:46:20;100718.77;;;12.45;77.94
44351;BME280;62766;62.622;17.912;2022-09-28T01:48:53;100719.77;;;12.50;77.50
44351;BME280;62766;62.622;17.912;2022-09-28T01:51:28;100722.24;;;12.45;77.44
44351;BME280;62766;62.622;17.912;2022-09-28T01:54:04;100722.29;;;12.50;77.33
44351;BME280;62766;62.622;17.912;2022-09-28T01:56:39;100721.37;;;12.48;77.54
44351;BME280;62766;62.622;17.912;2022-09-28T01:59:13;100719.83;;;12.40;77.44
44351;BME280;62766;62.622;17.912;2022-09-28T02:01:48;100723.46;;;12.44;77.56
44351;BME280;62766;62.622;17.912;2022-09-28T02:04:22;100724.96;;;12.50;76.46
44351;BME280;62766;62.622;17.912;2022-09-28T02:06:55;100725.95;;;12.54;76.85
44351;BME280;62766;62.622;17.912;2022-09-28T02:09:27;100727.76;;;12.42;76.67
44351;BME280;62766;62.622;17.912;2022-09-28T02:12:02;100727.03;;;12.44;76.97
44351;BME280;62766;62.622;17.912;2022-09-28T02:14:35;100729.11;;;12.33;77.00
44351;BME280;62766;62.622;17.912;2022-09-28T02:17:06;100733.86;;;12.23;77.45
44351;BME280;62766;62.622;17.912;2022-09-28T02:19:35;100732.69;;;12.47;77.44
44351;BME280;62766;62.622;17.912;2022-09-28T02:22:13;100736.27;;;12.41;77.38
44351;BME280;62766;62.622;17.912;2022-09-28T02:24:48;100736.32;;;12.43;76.93
44351;BME280;62766;62.622;17.912;2022-09-28T02:27:25;100737.34;;;12.27;77.03
44351;BME280;62766;62.622;17.912;2022-09-28T02:29:56;100735.44;;;12.28;77.02
44351;BME280;62766;62.622;17.912;2022-09-28T02:32:25;100736.96;;;12.31;77.12
44351;BME280;62766;62.622;17.912;2022-09-28T02:34:55;100738.19;;;12.46;76.99
44351;BME280;62766;62.622;17.912;2022-09-28T02:37:25;100737.56;;;12.34;76.88
44351;BME280;62766;62.622;17.912;2022-09-28T02:39:53;100735.57;;;12.27;76.95
44351;BME280;62766;62.622;17.912;2022-09-28T02:42:25;100735.51;;;12.33;77.08
44351;BME280;62766;62.622;17.912;2022-09-28T02:45:07;100736.57;;;12.38;77.40
44351;BME280;62766;62.622;17.912;2022-09-28T02:47:52;100734.02;;;12.26;77.62
44351;BME280;62766;62.622;17.912;2022-09-28T02:50:35;100733.57;;;12.35;77.32
44351;BME280;62766;62.622;17.912;2022-09-28T02:53:19;100732.88;;;12.31;76.89
44351;BME280;62766;62.622;17.912;2022-09-28T02:56:04;100736.76;;;12.28;76.85
44351;BME280;62766;62.622;17.912;2022-09-28T02:58:42;100734.08;;;12.33;76.71
44351;BME280;62766;62.622;17.912;2022-09-28T03:01:24;100734.63;;;12.35;76.73
44351;BME280;62766;62.622;17.912;2022-09-28T03:04:01;100733.38;;;12.32;76.67
44351;BME280;62766;62.622;17.912;2022-09-28T03:06:39;100733.84;;;12.30;76.80
44351;BME280;62766;62.622;17.912;2022-09-28T03:09:15;100735.56;;;12.32;76.75
44351;BME280;62766;62.622;17.912;2022-09-28T03:11:50;100735.37;;;12.19;76.64
44351;BME280;62766;62.622;17.912;2022-09-28T03:14:21;100733.33;;;12.27;76.97
44351;BME280;62766;62.622;17.912;2022-09-28T03:16:51;100732.58;;;12.28;76.60
44351;BME280;62766;62.622;17.912;2022-09-28T03:19:21;100733.39;;;12.31;76.82
44351;BME280;62766;62.622;17.912;2022-09-28T03:21:52;100729.98;;;12.39;76.17
44351;BME280;62766;62.622;17.912;2022-09-28T03:24:20;100731.48;;;12.23;76.66
44351;BME280;62766;62.622;17.912;2022-09-28T03:26:49;100729.24;;;12.28;76.64
44351;BME280;62766;62.622;17.912;2022-09-28T03:29:17;100726.74;;;12.50;76.72
44351;BME280;62766;62.622;17.912;2022-09-28T03:31:45;100728.25;;;12.35;76.29
44351;BME280;62766;62.622;17.912;2022-09-28T03:34:13;100728.47;;;12.27;76.21
44351;BME280;62766;62.622;17.912;2022-09-28T03:36:42;100728.31;;;12.17;76.62
44351;BME280;62766;62.622;17.912;2022-09-28T03:39:10;100725.41;;;12.25;76.72
44351;BME280;62766;62.622;17.912;2022-09-28T03:41:38;100728.43;;;12.26;76.80
44351;BME280;62766;62.622;17.912;2022-09-28T03:44:06;100729.02;;;12.23;76.58
44351;BME280;62766;62.622;17.912;2022-09-28T03:46:34;100728.56;;;12.30;76.67
44351;BME280;62766;62.622;17.912;2022-09-28T03:49:03;100724.81;;;12.29;76.43
44351;BME280;62766;62.622;17.912;2022-09-28T03:51:31;100724.66;;;12.28;76.36
44351;BME280;62766;62.622;17.912;2022-09-28T03:54:01;100722.34;;;12.25;76.52
44351;BME280;62766;62.622;17.912;2022-09-28T03:56:29;100722.66;;;12.37;75.82
44351;BME280;62766;62.622;17.912;2022-09-28T03:58:57;100720.74;;;12.14;75.92
44351;BME280;62766;62.622;17.912;2022-09-28T04:03:29;100721.07;;;12.17;76.44
44351;BME280;62766;62.622;17.912;2022-09-28T04:05:57;100724.90;;;12.15;76.51
44351;BME280;62766;62.622;17.912;2022-09-28T04:08:25;100723.10;;;12.07;76.02
44351;BME280;62766;62.622;17.912;2022-09-28T04:10:56;100726.95;;;12.17;76.21
44351;BME280;62766;62.622;17.912;2022-09-28T04:13:25;100726.85;;;12.06;76.32
44351;BME280;62766;62.622;17.912;2022-09-28T04:15:57;100726.81;;;12.04;76.74
44351;BME280;62766;62.622;17.912;2022-09-28T04:18:27;100727.29;;;12.20;76.68
44351;BME280;62766;62.622;17.912;2022-09-28T04:20:58;100728.70;;;12.28;76.60
44351;BME280;62766;62.622;17.912;2022-09-28T04:23:26;100727.25;;;12.37;76.32
44351;BME280;62766;62.622;17.912;2022-09-28T04:25:54;100728.98;;;12.31;76.37
44351;BME280;62766;62.622;17.912;2022-09-28T04:28:23;100730.20;;;12.32;76.36
44351;BME280;62766;62.622;17.912;2022-09-28T04:30:51;100731.65;;;12.33;76.37
44351;BME280;62766;62.622;17.912;2022-09-28T04:33:19;100732.41;;;12.24;76.44
44351;BME280;62766;62.622;17.912;2022-09-28T04:35:48;100733.43;;;12.42;76.37
44351;BME280;62766;62.622;17.912;2022-09-28T04:38:16;100734.82;;;12.41;76.27
44351;BME280;62766;62.622;17.912;2022-09-28T04:40:47;100733.32;;;12.41;76.23
44351;BME280;62766;62.622;17.912;2022-09-28T04:43:16;100734.74;;;12.43;76.22
44351;BME280;62766;62.622;17.912;2022-09-28T04:45:45;100732.77;;;12.44;76.08
44351;BME280;62766;62.622;17.912;2022-09-28T04:48:14;100735.10;;;12.50;76.17
44351;BME280;62766;62.622;17.912;2022-09-28T04:50:42;100734.44;;;12.36;76.01
44351;BME280;62766;62.622;17.912;2022-09-28T04:53:11;100732.96;;;12.42;76.09
44351;BME280;62766;62.622;17.912;2022-09-28T04:55:39;100732.63;;;12.32;76.08
44351;BME280;62766;62.622;17.912;2022-09-28T04:58:07;100734.84;;;12.34;75.95
44351;BME280;62766;62.622;17.912;2022-09-28T05:00:35;100734.17;;;12.35;75.83
44351;BME280;62766;62.622;17.912;2022-09-28T05:03:03;100737.16;;;12.23;75.77
44351;BME280;62766;62.622;17.912;2022-09-28T05:05:32;100737.37;;;12.30;75.86
44351;BME280;62766;62.622;17.912;2022-09-28T05:08:00;100738.52;;;12.33;75.66
44351;BME280;62766;62.622;17.912;2022-09-28T05:10:28;100738.80;;;12.33;75.82
44351;BME280;62766;62.622;17.912;2022-09-28T05:12:56;100741.19;;;12.29;75.89
44351;BME280;62766;62.622;17.912;2022-09-28T05:15:24;100743.16;;;12.33;75.78
44351;BME280;62766;62.622;17.912;2022-09-28T05:17:52;100742.93;;;12.38;75.88
44351;BME280;62766;62.622;17.912;2022-09-28T05:20:21;100744.35;;;12.31;75.33
44351;BME280;62766;62.622;17.912;2022-09-28T05:22:49;100745.23;;;12.23;75.20
44351;BME280;62766;62.622;17.912;2022-09-28T05:25:17;100747.29;;;12.34;75.02
44351;BME280;62766;62.622;17.912;2022-09-28T05:27:46;100746.88;;;12.17;75.00
44351;BME280;62766;62.622;17.912;2022-09-28T05:30:15;100749.87;;;12.35;75.06
44351;BME280;62766;62.622;17.912;2022-09-28T05:32:44;100750.42;;;12.08;74.62
44351;BME280;62766;62.622;17.912;2022-09-28T05:35:13;100752.62;;;12.07;74.69
44351;BME280;62766;62.622;17.912;2022-09-28T05:37:41;100754.42;;;12.16;73.95
44351;BME280;62766;62.622;17.912;2022-09-28T05:40:11;100758.76;;;11.93;74.88
44351;BME280;62766;62.622;17.912;2022-09-28T05:42:41;100757.46;;;12.05;74.82
44351;BME280;62766;62.622;17.912;2022-09-28T05:45:09;100758.81;;;12.14;75.03
44351;BME280;62766;62.622;17.912;2022-09-28T05:47:38;100759.61;;;12.01;74.52
44351;BME280;62766;62.622;17.912;2022-09-28T05:50:09;100757.60;;;12.12;74.32
44351;BME280;62766;62.622;17.912;2022-09-28T05:52:37;100761.67;;;11.99;74.54
44351;BME280;62766;62.622;17.912;2022-09-28T05:55:07;100761.68;;;12.12;74.71
44351;BME280;62766;62.622;17.912;2022-09-28T05:57:37;100759.17;;;12.11;74.43
44351;BME280;62766;62.622;17.912;2022-09-28T06:00:07;100761.07;;;12.06;74.64
44351;BME280;62766;62.622;17.912;2022-09-28T06:02:36;100759.98;;;12.04;74.50
44351;BME280;62766;62.622;17.912;2022-09-28T06:05:04;100760.96;;;12.11;74.37
44351;BME280;62766;62.622;17.912;2022-09-28T06:07:34;100761.89;;;12.02;74.07
44351;BME280;62766;62.622;17.912;2022-09-28T06:10:03;100762.65;;;12.05;73.57
44351;BME280;62766;62.622;17.912;2022-09-28T06:12:33;100762.76;;;11.97;73.30
44351;BME280;62766;62.622;17.912;2022-09-28T06:15:02;100765.93;;;12.02;73.62
44351;BME280;62766;62.622;17.912;2022-09-28T06:17:32;100767.05;;;12.02;73.50
44351;BME280;62766;62.622;17.912;2022-09-28T06:20:00;100770.97;;;12.07;73.81
44351;BME280;62766;62.622;17.912;2022-09-28T06:22:28;100774.39;;;11.92;72.87
44351;BME280;62766;62.622;17.912;2022-09-28T06:24:56;100774.16;;;12.02;73.73
44351;BME280;62766;62.622;17.912;2022-09-28T06:27:24;100775.43;;;12.03;73.92
44351;BME280;62766;62.622;17.912;2022-09-28T06:29:53;100773.95;;;11.96;73.93
44351;BME280;62766;62.622;17.912;2022-09-28T06:32:21;100774.82;;;12.04;73.28
44351;BME280;62766;62.622;17.912;2022-09-28T06:34:49;100775.32;;;11.93;73.42
44351;BME280;62766;62.622;17.912;2022-09-28T06:37:17;100772.31;;;11.78;73.61
44351;BME280;62766;62.622;17.912;2022-09-28T06:39:46;100773.04;;;11.98;73.80
44351;BME280;62766;62.622;17.912;2022-09-28T06:42:15;100772.56;;;11.85;73.28
44351;BME280;62766;62.622;17.912;2022-09-28T06:44:44;100773.80;;;11.94;72.85
44351;BME280;62766;62.622;17.912;2022-09-28T06:47:13;100773.55;;;11.97;72.59
44351;BME280;62766;62.622;17.912;2022-09-28T06:49:42;100774.12;;;12.01;72.83
44351;BME280;62766;62.622;17.912;2022-09-28T06:52:10;100777.20;;;12.00;72.29
44351;BME280;62766;62.622;17.912;2022-09-28T06:54:38;100774.79;;;12.00;72.78
44351;BME280;62766;62.622;17.912;2022-09-28T06:57:06;100775.33;;;12.02;72.80
44351;BME280;62766;62.622;17.912;2022-09-28T06:59:34;100776.04;;;12.12;71.92
44351;BME280;62766;62.622;17.912;2022-09-28T07:02:02;100772.98;;;12.11;72.04
44351;BME280;62766;62.622;17.912;2022-09-28T07:04:30;100775.28;;;12.01;72.13
44351;BME280;62766;62.622;17.912;2022-09-28T07:06:59;100775.28;;;11.96;71.73
44351;BME280;62766;62.622;17.912;2022-09-28T07:09:27;100777.67;;;11.97;71.74
44351;BME280;62766;62.622;17.912;2022-09-28T07:11:55;100780.52;;;12.12;71.64
44351;BME280;62766;62.622;17.912;2022-09-28T07:14:23;100780.30;;;12.02;71.36
44351;BME280;62766;62.622;17.912;2022-09-28T07:16:51;100781.01;;;12.07;71.15
44351;BME280;62766;62.622;17.912;2022-09-28T07:19:20;100781.28;;;12.09;70.82
44351;BME280;62766;62.622;17.912;2022-09-28T07:21:50;100781.41;;;12.02;71.01
44351;BME280;62766;62.622;17.912;2022-09-28T07:24:19;100783.34;;;12.09;70.98
44351;BME280;62766;62.622;17.912;2022-09-28T07:26:47;100784.36;;;12.04;71.13
44351;BME280;62766;62.622;17.912;2022-09-28T07:29:16;100785.03;;;12.13;71.13
44351;BME280;62766;62.622;17.912;2022-09-28T07:31:44;100786.48;;;12.23;71.03
44351;BME280;62766;62.622;17.912;2022-09-28T07:34:14;100787.46;;;12.15;71.23
44351;BME280;62766;62.622;17.912;2022-09-28T07:36:42;100786.52;;;12.24;70.69
44351;BME280;62766;62.622;17.912;2022-09-28T07:39:10;100788.22;;;12.12;70.76
44351;BME280;62766;62.622;17.912;2022-09-28T07:41:38;100785.30;;;12.17;71.46
44351;BME280;62766;62.622;17.912;2022-09-28T07:44:06;100786.06;;;12.24;70.61
44351;BME280;62766;62.622;17.912;2022-09-28T07:46:35;100784.45;;;12.23;70.73
44351;BME280;62766;62.622;17.912;2022-09-28T07:49:04;100786.87;;;12.32;70.29
44351;BME280;62766;62.622;17.912;2022-09-28T07:51:33;100785.64;;;12.22;70.50
44351;BME280;62766;62.622;17.912;2022-09-28T07:54:03;100784.74;;;12.37;70.34
44351;BME280;62766;62.622;17.912;2022-09-28T07:56:31;100784.64;;;12.22;70.48
44351;BME280;62766;62.622;17.912;2022-09-28T07:58:59;100787.17;;;12.12;70.84
44351;BME280;62766;62.622;17.912;2022-09-28T08:01:27;100787.99;;;12.04;71.01
44351;BME280;62766;62.622;17.912;2022-09-28T08:03:55;100789.50;;;12.00;71.17
44351;BME280;62766;62.622;17.912;2022-09-28T08:06:23;100790.24;;;11.88;71.77
44351;BME280;62766;62.622;17.912;2022-09-28T08:08:51;100789.66;;;11.81;71.95
44351;BME280;62766;62.622;17.912;2022-09-28T08:11:20;100794.03;;;12.05;72.41
44351;BME280;62766;62.622;17.912;2022-09-28T08:13:48;100794.89;;;12.12;72.66
44351;BME280;62766;62.622;17.912;2022-09-28T08:16:16;100796.10;;;12.04;72.24
44351;BME280;62766;62.622;17.912;2022-09-28T08:18:47;100794.80;;;12.09;72.81
44351;BME280;62766;62.622;17.912;2022-09-28T08:21:16;100795.08;;;12.29;72.64
44351;BME280;62766;62.622;17.912;2022-09-28T08:23:44;100794.45;;;12.14;72.40
44351;BME280;62766;62.622;17.912;2022-09-28T08:26:14;100795.27;;;12.20;72.55
44351;BME280;62766;62.622;17.912;2022-09-28T08:28:44;100797.00;;;12.44;72.12
44351;BME280;62766;62.622;17.912;2022-09-28T08:31:14;100797.65;;;12.48;71.64
44351;BME280;62766;62.622;17.912;2022-09-28T08:33:42;100800.67;;;12.47;72.27
44351;BME280;62766;62.622;17.912;2022-09-28T08:36:10;100796.38;;;12.63;71.21
44351;BME280;62766;62.622;17.912;2022-09-28T08:38:38;100797.90;;;12.62;70.47
44351;BME280;62766;62.622;17.912;2022-09-28T08:41:14;100800.95;;;12.60;71.09
44351;BME280;62766;62.622;17.912;2022-09-28T08:44:19;100798.19;;;12.61;70.54
44351;BME280;62766;62.622;17.912;2022-09-28T08:46:50;100802.46;;;12.60;70.46
44351;BME280;62766;62.622;17.912;2022-09-28T08:49:25;100805.70;;;12.51;70.45
44351;BME280;62766;62.622;17.912;2022-09-28T08:51:59;100802.80;;;12.64;70.71
44351;BME280;62766;62.622;17.912;2022-09-28T08:54:35;100806.31;;;12.59;71.27
44351;BME280;62766;62.622;17.912;2022-09-28T08:57:11;100805.45;;;12.61;70.68
44351;BME280;62766;62.622;17.912;2022-09-28T08:59:47;100808.48;;;12.60;71.10
44351;BME280;62766;62.622;17.912;2022-09-28T09:02:21;100807.47;;;12.60;71.15
44351;BME280;62766;62.622;17.912;2022-09-28T09:04:51;100809.40;;;12.64;70.83
44351;BME280;62766;62.622;17.912;2022-09-28T09:07:40;100808.82;;;12.51;71.23
44351;BME280;62766;62.622;17.912;2022-09-28T09:10:19;100813.38;;;12.54;71.19
44351;BME280;62766;62.622;17.912;2022-09-28T09:12:56;100814.13;;;12.63;71.12
44351;BME280;62766;62.622;17.912;2022-09-28T09:15:38;100816.85;;;12.79;71.01
44351;BME280;62766;62.622;17.912;2022-09-28T09:18:18;100816.35;;;12.64;71.54
44351;BME280;62766;62.622;17.912;2022-09-28T09:20:51;100818.21;;;12.71;71.78
44351;BME280;62766;62.622;17.912;2022-09-28T09:23:28;100819.16;;;12.76;70.35
44351;BME280;62766;62.622;17.912;2022-09-28T09:26:12;100823.03;;;12.84;70.80
44351;BME280;62766;62.622;17.912;2022-09-28T09:29:02;100825.57;;;12.82;70.44
44351;BME280;62766;62.622;17.912;2022-09-28T09:31:44;100823.98;;;12.83;70.51
44351;BME280;62766;62.622;17.912;2022-09-28T09:34:31;100823.89;;;12.82;70.01
44351;BME280;62766;62.622;17.912;2022-09-28T09:37:18;100820.94;;;13.14;68.82
44351;BME280;62766;62.622;17.912;2022-09-28T09:39:59;100821.88;;;12.96;68.75
44351;BME280;62766;62.622;17.912;2022-09-28T09:42:43;100819.75;;;12.92;68.24
44351;BME280;62766;62.622;17.912;2022-09-28T09:45:27;100823.75;;;12.86;69.02
44351;BME280;62766;62.622;17.912;2022-09-28T09:48:02;100824.26;;;12.99;68.73
44351;BME280;62766;62.622;17.912;2022-09-28T09:50:34;100825.52;;;12.96;68.38
44351;BME280;62766;62.622;17.912;2022-09-28T09:53:13;100826.78;;;12.94;68.75
44351;BME280;62766;62.622;17.912;2022-09-28T09:55:45;100829.71;;;13.01;68.25
44351;BME280;62766;62.622;17.912;2022-09-28T09:58:18;100828.29;;;12.89;68.11
44351;BME280;62766;62.622;17.912;2022-09-28T10:03:22;100826.87;;;12.89;68.52
44351;BME280;62766;62.622;17.912;2022-09-28T10:05:56;100828.67;;;12.87;68.78
44351;BME280;62766;62.622;17.912;2022-09-28T10:08:26;100823.80;;;13.00;67.84
44351;BME280;62766;62.622;17.912;2022-09-28T10:11:06;100825.06;;;12.92;68.28
44351;BME280;62766;62.622;17.912;2022-09-28T10:13:35;100825.30;;;12.98;69.42
44351;BME280;62766;62.622;17.912;2022-09-28T10:16:04;100824.31;;;13.05;67.97
44351;BME280;62766;62.622;17.912;2022-09-28T10:18:34;100822.58;;;13.09;68.49
44351;BME280;62766;62.622;17.912;2022-09-28T10:21:04;100825.49;;;13.09;67.81
44351;BME280;62766;62.622;17.912;2022-09-28T10:23:35;100824.13;;;13.07;68.72
44351;BME280;62766;62.622;17.912;2022-09-28T10:26:07;100823.70;;;13.18;68.32
44351;BME280;62766;62.622;17.912;2022-09-28T10:28:42;100827.65;;;13.18;68.07
44351;BME280;62766;62.622;17.912;2022-09-28T10:31:50;100827.19;;;13.29;66.82
44351;BME280;62766;62.622;17.912;2022-09-28T10:34:25;100826.52;;;13.19;67.43
44351;BME280;62766;62.622;17.912;2022-09-28T10:36:57;100826.00;;;13.49;67.65
44351;BME280;62766;62.622;17.912;2022-09-28T10:39:32;100827.40;;;13.44;67.69
44351;BME280;62766;62.622;17.912;2022-09-28T10:42:06;100827.22;;;13.31;67.86
44351;BME280;62766;62.622;17.912;2022-09-28T10:44:48;100826.33;;;13.37;67.80
44351;BME280;62766;62.622;17.912;2022-09-28T10:47:19;100826.90;;;13.25;68.03
44351;BME280;62766;62.622;17.912;2022-09-28T10:49:50;100825.93;;;13.31;68.22
44351;BME280;62766;62.622;17.912;2022-09-28T10:52:30;100827.90;;;13.35;67.09
44351;BME280;62766;62.622;17.912;2022-09-28T10:55:00;100826.92;;;13.42;66.67
44351;BME280;62766;62.622;17.912;2022-09-28T10:57:33;100830.04;;;13.26;67.10
44351;BME280;62766;62.622;17.912;2022-09-28T11:00:04;100831.00;;;13.19;67.19
44351;BME280;62766;62.622;17.912;2022-09-28T11:02:35;100829.09;;;13.07;67.42
44351;BME280;62766;62.622;17.912;2022-09-28T11:05:06;100826.17;;;13.07;67.54
44351;BME280;62766;62.622;17.912;2022-09-28T11:07:43;100823.72;;;13.14;67.48
44351;BME280;62766;62.622;17.912;2022-09-28T11:10:20;100822.34;;;13.22;66.44
44351;BME280;62766;62.622;17.912;2022-09-28T11:12:50;100824.91;;;13.08;66.64
44351;BME280;62766;62.622;17.912;2022-09-28T11:15:21;100823.73;;;13.28;66.24
44351;BME280;62766;62.622;17.912;2022-09-28T11:17:53;100822.32;;;13.15;67.21
44351;BME280;62766;62.622;17.912;2022-09-28T11:20:32;100819.92;;;13.03;66.84
44351;BME280;62766;62.622;17.912;2022-09-28T11:23:17;100816.04;;;13.14;66.91
44351;BME280;62766;62.622;17.912;2022-09-28T11:25:56;100815.11;;;13.21;67.25
44351;BME280;62766;62.622;17.912;2022-09-28T11:28:29;100814.51;;;13.27;67.67
44351;BME280;62766;62.622;17.912;2022-09-28T11:31:00;100813.03;;;13.25;66.56
44351;BME280;62766;62.622;17.912;2022-09-28T11:33:33;100812.04;;;13.19;67.84
44351;BME280;62766;62.622;17.912;2022-09-28T11:36:13;100808.25;;;13.48;67.46
44351;BME280;62766;62.622;17.912;2022-09-28T11:38:54;100805.74;;;13.46;65.51
44351;BME280;62766;62.622;17.912;2022-09-28T11:41:43;100805.94;;;13.36;65.01
44351;BME280;62766;62.622;17.912;2022-09-28T11:44:35;100807.03;;;13.34;64.73
44351;BME280;62766;62.622;17.912;2022-09-28T11:47:16;100803.43;;;13.56;63.28
44351;BME280;62766;62.622;17.912;2022-09-28T11:49:55;100802.44;;;13.52;62.33
44351;BME280;62766;62.622;17.912;2022-09-28T11:52:28;100802.39;;;13.58;62.27
44351;BME280;62766;62.622;17.912;2022-09-28T11:55:03;100800.73;;;13.32;63.13
44351;BME280;62766;62.622;17.912;2022-09-28T11:57:35;100799.17;;;13.28;62.97
44351;BME280;62766;62.622;17.912;2022-09-28T12:00:10;100801.60;;;13.34;62.63
44351;BME280;62766;62.622;17.912;2022-09-28T12:02:45;100800.09;;;13.53;63.54
44351;BME280;62766;62.622;17.912;2022-09-28T12:05:22;100798.72;;;13.61;61.58
44351;BME280;62766;62.622;17.912;2022-09-28T12:07:55;100799.09;;;13.58;61.63
44351;BME280;62766;62.622;17.912;2022-09-28T12:10:32;100798.14;;;13.72;61.06
44351;BME280;62766;62.622;17.912;2022-09-28T12:13:04;100801.17;;;13.57;59.88
44351;BME280;62766;62.622;17.912;2022-09-28T12:15:43;100801.07;;;13.81;60.89
44351;BME280;62766;62.622;17.912;2022-09-28T12:18:19;100801.30;;;13.82;60.51
44351;BME280;62766;62.622;17.912;2022-09-28T12:20:52;100800.33;;;13.85;60.50
44351;BME280;62766;62.622;17.912;2022-09-28T12:23:24;100801.19;;;13.88;61.10
44351;BME280;62766;62.622;17.912;2022-09-28T12:25:57;100800.33;;;13.87;60.64
44351;BME280;62766;62.622;17.912;2022-09-28T12:28:33;100801.49;;;13.90;60.84
44351;BME280;62766;62.622;17.912;2022-09-28T12:31:11;100801.30;;;14.11;60.08
44351;BME280;62766;62.622;17.912;2022-09-28T12:33:45;100801.62;;;14.23;59.82
44351;BME280;62766;62.622;17.912;2022-09-28T12:36:25;100801.96;;;14.13;59.40
44351;BME280;62766;62.622;17.912;2022-09-28T12:39:06;100799.52;;;13.90;59.28
44351;BME280;62766;62.622;17.912;2022-09-28T12:41:47;100798.39;;;14.06;59.32
44351;BME280;62766;62.622;17.912;2022-09-28T12:44:33;100798.91;;;13.89;58.28
44351;BME280;62766;62.622;17.912;2022-09-28T12:47:20;100799.64;;;13.96;59.99
44351;BME280;62766;62.622;17.912;2022-09-28T12:50:01;100798.65;;;13.78;59.29
44351;BME280;62766;62.622;17.912;2022-09-28T12:52:40;100801.25;;;13.87;58.90
44351;BME280;62766;62.622;17.912;2022-09-28T12:55:29;100800.25;;;13.57;59.41
44351;BME280;62766;62.622;17.912;2022-09-28T12:58:15;100801.07;;;13.73;60.06
44351;BME280;62766;62.622;17.912;2022-09-28T13:00:53;100803.00;;;13.73;59.91
44351;BME280;62766;62.622;17.912;2022-09-28T13:03:39;100801.50;;;13.50;59.62
44351;BME280;62766;62.622;17.912;2022-09-28T13:06:21;100803.48;;;13.54;60.45
44351;BME280;62766;62.622;17.912;2022-09-28T13:09:04;100800.45;;;13.52;60.13
44351;BME280;62766;62.622;17.912;2022-09-28T13:11:40;100796.68;;;13.36;59.44
44351;BME280;62766;62.622;17.912;2022-09-28T13:14:29;100797.42;;;13.36;59.91